sensor_id;sensor_type;location;lat;lon;timestamp;P1;durP1;ratioP1;P2;durP2;ratioP2
72422;SDS011;71399;54.146;38.734;2023-07-13T00:01:58;6.65;;;2.92;;
72422;SDS011;71399;54.146;38.734;2023-07-13T00:04:25;5.90;;;2.80;;
72422;SDS011;71399;54.146;38.734;2023-07-13T00:06:51;7.32;;;3.03;;
72422;SDS011;71399;54.146;38.734;2023-07-13T00:09:18;5.03;;;2.63;;
72422;SDS011;71399;54.146;38.734;2023-07-13T00:11:45;7.40;;;3.00;;
72422;SDS011;71399;54.146;38.734;2023-07-13T00:14:15;6.47;;;3.35;;
72422;SDS011;71399;54.146;38.734;2023-07-13T00:16:41;6.07;;;3.20;;
72422;SDS011;71399;54.146;38.734;2023-07-13T00:19:09;7.53;;;3.60;;
72422;SDS011;71399;54.146;38.734;2023-07-13T00:21:37;5.25;;;2.90;;
72422;SDS011;71399;54.146;38.734;2023-07-13T00:24:05;6.22;;;2.90;;
72422;SDS011;71399;54.146;38.734;2023-07-13T00:26:32;7.25;;;2.90;;
72422;SDS011;71399;54.146;38.734;2023-07-13T00:28:59;9.57;;;2.88;;
72422;SDS011;71399;54.146;38.734;2023-07-13T00:31:25;5.38;;;2.85;;
72422;SDS011;71399;54.146;38.734;2023-07-13T00:33:51;5.68;;;2.70;;
72422;SDS011;71399;54.146;38.734;2023-07-13T00:36:19;5.07;;;2.45;;
72422;SDS011;71399;54.146;38.734;2023-07-13T00:38:45;5.07;;;2.28;;
72422;SDS011;71399;54.146;38.734;2023-07-13T00:41:12;6.38;;;2.65;;
72422;SDS011;71399;54.146;38.734;2023-07-13T00:43:39;6.50;;;2.70;;
72422;SDS011;71399;54.146;38.734;2023-07-13T00:46:11;7.80;;;2.80;;
72422;SDS011;71399;54.146;38.734;2023-07-13T00:48:41;8.70;;;3.58;;
72422;SDS011;71399;54.146;38.734;2023-07-13T00:51:09;8.55;;;3.45;;
72422;SDS011;71399;54.146;38.734;2023-07-13T00:53:36;6.35;;;2.90;;
72422;SDS011;71399;54.146;38.734;2023-07-13T00:56:02;7.03;;;3.35;;
72422;SDS011;71399;54.146;38.734;2023-07-13T00:58:29;13.25;;;3.53;;
72422;SDS011;71399;54.146;38.734;2023-07-13T01:00:57;11.27;;;4.97;;
72422;SDS011;71399;54.146;38.734;2023-07-13T01:03:23;12.43;;;5.65;;
72422;SDS011;71399;54.146;38.734;2023-07-13T01:05:50;14.82;;;6.97;;
72422;SDS011;71399;54.146;38.734;2023-07-13T01:08:20;17.58;;;8.00;;
72422;SDS011;71399;54.146;38.734;2023-07-13T01:10:54;18.50;;;8.45;;
72422;SDS011;71399;54.146;38.734;2023-07-13T01:13:21;23.33;;;10.45;;
72422;SDS011;71399;54.146;38.734;2023-07-13T01:15:49;28.10;;;11.05;;
72422;SDS011;71399;54.146;38.734;2023-07-13T01:18:25;31.00;;;11.73;;
72422;SDS011;71399;54.146;38.734;2023-07-13T01:23:29;26.52;;;8.88;;
72422;SDS011;71399;54.146;38.734;2023-07-13T01:25:56;19.35;;;7.97;;
72422;SDS011;71399;54.146;38.734;2023-07-13T01:28:24;17.95;;;6.57;;
72422;SDS011;71399;54.146;38.734;2023-07-13T01:30:52;14.85;;;6.07;;
72422;SDS011;71399;54.146;38.734;2023-07-13T01:33:22;13.75;;;6.00;;
72422;SDS011;71399;54.146;38.734;2023-07-13T01:35:49;13.20;;;5.68;;
72422;SDS011;71399;54.146;38.734;2023-07-13T01:38:16;13.57;;;6.10;;
72422;SDS011;71399;54.146;38.734;2023-07-13T01:40:44;11.70;;;5.60;;
72422;SDS011;71399;54.146;38.734;2023-07-13T01:43:10;13.20;;;5.60;;
72422;SDS011;71399;54.146;38.734;2023-07-13T01:45:37;10.70;;;5.90;;
72422;SDS011;71399;54.146;38.734;2023-07-13T01:48:03;13.10;;;5.20;;
72422;SDS011;71399;54.146;38.734;2023-07-13T01:50:32;15.52;;;5.57;;
72422;SDS011;71399;54.146;38.734;2023-07-13T01:52:59;12.25;;;5.25;;
72422;SDS011;71399;54.146;38.734;2023-07-13T01:55:25;15.35;;;5.10;;
72422;SDS011;71399;54.146;38.734;2023-07-13T01:57:51;13.50;;;5.47;;
72422;SDS011;71399;54.146;38.734;2023-07-13T02:00:17;14.57;;;5.38;;
72422;SDS011;71399;54.146;38.734;2023-07-13T02:02:47;9.70;;;5.10;;
72422;SDS011;71399;54.146;38.734;2023-07-13T02:05:13;9.00;;;4.88;;
72422;SDS011;71399;54.146;38.734;2023-07-13T02:07:40;11.73;;;4.60;;
72422;SDS011;71399;54.146;38.734;2023-07-13T02:10:07;9.27;;;4.22;;
72422;SDS011;71399;54.146;38.734;2023-07-13T02:12:35;11.20;;;5.10;;
72422;SDS011;71399;54.146;38.734;2023-07-13T02:15:02;7.88;;;4.43;;
72422;SDS011;71399;54.146;38.734;2023-07-13T02:17:31;8.70;;;4.32;;
72422;SDS011;71399;54.146;38.734;2023-07-13T02:19:58;12.93;;;4.55;;
72422;SDS011;71399;54.146;38.734;2023-07-13T02:22:24;10.75;;;5.18;;
72422;SDS011;71399;54.146;38.734;2023-07-13T02:24:50;14.30;;;4.85;;
72422;SDS011;71399;54.146;38.734;2023-07-13T02:27:18;9.23;;;4.07;;
72422;SDS011;71399;54.146;38.734;2023-07-13T02:29:44;8.00;;;4.70;;
72422;SDS011;71399;54.146;38.734;2023-07-13T02:32:10;6.72;;;3.70;;
72422;SDS011;71399;54.146;38.734;2023-07-13T02:34:36;8.93;;;4.20;;
72422;SDS011;71399;54.146;38.734;2023-07-13T02:37:03;13.38;;;4.72;;
72422;SDS011;71399;54.146;38.734;2023-07-13T02:39:30;11.05;;;4.97;;
72422;SDS011;71399;54.146;38.734;2023-07-13T02:41:58;8.43;;;4.28;;
72422;SDS011;71399;54.146;38.734;2023-07-13T02:44:26;11.80;;;4.30;;
72422;SDS011;71399;54.146;38.734;2023-07-13T02:46:52;9.48;;;4.32;;
72422;SDS011;71399;54.146;38.734;2023-07-13T02:49:18;12.80;;;4.53;;
72422;SDS011;71399;54.146;38.734;2023-07-13T02:51:44;10.32;;;4.25;;
72422;SDS011;71399;54.146;38.734;2023-07-13T02:54:10;10.27;;;4.70;;
72422;SDS011;71399;54.146;38.734;2023-07-13T02:56:39;11.00;;;4.60;;
72422;SDS011;71399;54.146;38.734;2023-07-13T02:59:05;15.98;;;4.20;;
72422;SDS011;71399;54.146;38.734;2023-07-13T03:01:32;7.07;;;3.72;;
72422;SDS011;71399;54.146;38.734;2023-07-13T03:04:01;7.78;;;3.38;;
72422;SDS011;71399;54.146;38.734;2023-07-13T03:06:30;9.13;;;3.50;;
72422;SDS011;71399;54.146;38.734;2023-07-13T03:08:58;10.02;;;3.78;;
72422;SDS011;71399;54.146;38.734;2023-07-13T03:11:27;7.28;;;3.78;;
72422;SDS011;71399;54.146;38.734;2023-07-13T03:16:31;8.30;;;3.60;;
72422;SDS011;71399;54.146;38.734;2023-07-13T03:18:58;10.50;;;3.65;;
72422;SDS011;71399;54.146;38.734;2023-07-13T03:21:24;15.30;;;4.25;;
72422;SDS011;71399;54.146;38.734;2023-07-13T03:23:50;9.35;;;4.05;;
72422;SDS011;71399;54.146;38.734;2023-07-13T03:26:18;4.65;;;2.60;;
72422;SDS011;71399;54.146;38.734;2023-07-13T03:28:45;6.28;;;2.70;;
72422;SDS011;71399;54.146;38.734;2023-07-13T03:31:17;5.47;;;2.60;;
72422;SDS011;71399;54.146;38.734;2023-07-13T03:33:45;6.65;;;2.63;;
72422;SDS011;71399;54.146;38.734;2023-07-13T03:36:14;6.43;;;2.83;;
72422;SDS011;71399;54.146;38.734;2023-07-13T03:39:06;4.95;;;2.15;;
72422;SDS011;71399;54.146;38.734;2023-07-13T03:41:45;4.40;;;2.30;;
72422;SDS011;71399;54.146;38.734;2023-07-13T03:44:12;6.03;;;2.13;;
72422;SDS011;71399;54.146;38.734;2023-07-13T03:46:39;4.90;;;2.33;;
72422;SDS011;71399;54.146;38.734;2023-07-13T03:49:05;3.63;;;2.20;;
72422;SDS011;71399;54.146;38.734;2023-07-13T03:51:32;5.28;;;2.00;;
72422;SDS011;71399;54.146;38.734;2023-07-13T03:53:59;3.65;;;2.22;;
72422;SDS011;71399;54.146;38.734;2023-07-13T03:56:26;3.25;;;2.20;;
72422;SDS011;71399;54.146;38.734;2023-07-13T03:58:52;3.88;;;1.90;;
72422;SDS011;71399;54.146;38.734;2023-07-13T04:01:21;3.35;;;1.95;;
72422;SDS011;71399;54.146;38.734;2023-07-13T04:03:48;3.53;;;1.80;;
72422;SDS011;71399;54.146;38.734;2023-07-13T04:06:16;3.33;;;2.13;;
72422;SDS011;71399;54.146;38.734;2023-07-13T04:08:48;3.33;;;1.90;;
72422;SDS011;71399;54.146;38.734;2023-07-13T04:11:16;3.15;;;1.88;;
72422;SDS011;71399;54.146;38.734;2023-07-13T04:13:43;4.65;;;2.13;;
72422;SDS011;71399;54.146;38.734;2023-07-13T04:16:11;3.20;;;1.90;;
72422;SDS011;71399;54.146;38.734;2023-07-13T04:18:38;3.65;;;2.10;;
72422;SDS011;71399;54.146;38.734;2023-07-13T04:21:04;4.43;;;2.15;;
72422;SDS011;71399;54.146;38.734;2023-07-13T04:23:30;5.47;;;2.33;;
72422;SDS011;71399;54.146;38.734;2023-07-13T04:25:56;5.25;;;2.35;;
72422;SDS011;71399;54.146;38.734;2023-07-13T04:28:23;5.00;;;2.08;;
72422;SDS011;71399;54.146;38.734;2023-07-13T04:30:51;5.22;;;1.92;;
72422;SDS011;71399;54.146;38.734;2023-07-13T04:33:18;7.85;;;2.47;;
72422;SDS011;71399;54.146;38.734;2023-07-13T04:35:50;5.50;;;2.47;;
72422;SDS011;71399;54.146;38.734;2023-07-13T04:38:22;4.55;;;2.20;;
72422;SDS011;71399;54.146;38.734;2023-07-13T04:40:50;3.90;;;2.17;;
72422;SDS011;71399;54.146;38.734;2023-07-13T04:43:17;6.50;;;2.05;;
72422;SDS011;71399;54.146;38.734;2023-07-13T04:45:44;7.45;;;2.22;;
72422;SDS011;71399;54.146;38.734;2023-07-13T04:48:10;7.03;;;1.85;;
72422;SDS011;71399;54.146;38.734;2023-07-13T04:50:37;3.28;;;1.80;;
72422;SDS011;71399;54.146;38.734;2023-07-13T04:53:03;5.65;;;2.08;;
72422;SDS011;71399;54.146;38.734;2023-07-13T04:55:30;5.57;;;1.83;;
72422;SDS011;71399;54.146;38.734;2023-07-13T04:57:57;4.35;;;2.05;;
72422;SDS011;71399;54.146;38.734;2023-07-13T05:00:26;3.58;;;1.88;;
72422;SDS011;71399;54.146;38.734;2023-07-13T05:02:54;4.53;;;1.83;;
72422;SDS011;71399;54.146;38.734;2023-07-13T05:05:21;6.47;;;1.88;;
72422;SDS011;71399;54.146;38.734;2023-07-13T05:07:47;4.20;;;1.98;;
72422;SDS011;71399;54.146;38.734;2023-07-13T05:10:13;4.60;;;1.88;;
72422;SDS011;71399;54.146;38.734;2023-07-13T05:12:39;6.72;;;2.30;;
72422;SDS011;71399;54.146;38.734;2023-07-13T05:15:06;4.65;;;2.08;;
72422;SDS011;71399;54.146;38.734;2023-07-13T05:17:32;7.50;;;2.22;;
72422;SDS011;71399;54.146;38.734;2023-07-13T05:19:59;7.35;;;2.63;;
72422;SDS011;71399;54.146;38.734;2023-07-13T05:22:25;8.25;;;3.00;;
72422;SDS011;71399;54.146;38.734;2023-07-13T05:24:51;16.55;;;3.90;;
72422;SDS011;71399;54.146;38.734;2023-07-13T05:27:17;12.73;;;3.92;;
72422;SDS011;71399;54.146;38.734;2023-07-13T05:29:43;14.50;;;4.03;;
72422;SDS011;71399;54.146;38.734;2023-07-13T05:32:10;12.35;;;3.45;;
72422;SDS011;71399;54.146;38.734;2023-07-13T05:34:36;10.00;;;3.22;;
72422;SDS011;71399;54.146;38.734;2023-07-13T05:37:02;9.50;;;2.92;;
72422;SDS011;71399;54.146;38.734;2023-07-13T05:39:28;4.85;;;2.50;;
72422;SDS011;71399;54.146;38.734;2023-07-13T05:41:54;5.90;;;2.70;;
72422;SDS011;71399;54.146;38.734;2023-07-13T05:44:20;5.28;;;2.47;;
72422;SDS011;71399;54.146;38.734;2023-07-13T05:46:46;7.10;;;2.58;;
72422;SDS011;71399;54.146;38.734;2023-07-13T05:49:13;4.30;;;2.50;;
72422;SDS011;71399;54.146;38.734;2023-07-13T05:51:40;8.02;;;3.10;;
72422;SDS011;71399;54.146;38.734;2023-07-13T05:54:06;6.78;;;2.75;;
72422;SDS011;71399;54.146;38.734;2023-07-13T05:56:32;4.85;;;2.55;;
72422;SDS011;71399;54.146;38.734;2023-07-13T05:58:59;6.57;;;2.40;;
72422;SDS011;71399;54.146;38.734;2023-07-13T06:01:25;5.85;;;2.50;;
72422;SDS011;71399;54.146;38.734;2023-07-13T06:03:51;4.75;;;2.47;;
72422;SDS011;71399;54.146;38.734;2023-07-13T06:06:17;5.22;;;2.40;;
72422;SDS011;71399;54.146;38.734;2023-07-13T06:08:43;4.85;;;2.05;;
72422;SDS011;71399;54.146;38.734;2023-07-13T06:11:12;5.30;;;2.15;;
72422;SDS011;71399;54.146;38.734;2023-07-13T06:13:41;6.28;;;2.25;;
72422;SDS011;71399;54.146;38.734;2023-07-13T06:16:07;4.78;;;2.45;;
72422;SDS011;71399;54.146;38.734;2023-07-13T06:18:34;3.65;;;2.00;;
72422;SDS011;71399;54.146;38.734;2023-07-13T06:21:11;4.07;;;2.05;;
72422;SDS011;71399;54.146;38.734;2023-07-13T06:23:39;4.80;;;2.22;;
72422;SDS011;71399;54.146;38.734;2023-07-13T06:26:06;4.82;;;2.17;;
72422;SDS011;71399;54.146;38.734;2023-07-13T06:28:34;3.88;;;2.30;;
72422;SDS011;71399;54.146;38.734;2023-07-13T06:31:01;8.15;;;2.00;;
72422;SDS011;71399;54.146;38.734;2023-07-13T06:33:30;6.35;;;2.30;;
72422;SDS011;71399;54.146;38.734;2023-07-13T06:35:56;4.57;;;2.00;;
72422;SDS011;71399;54.146;38.734;2023-07-13T06:38:22;5.00;;;2.28;;
72422;SDS011;71399;54.146;38.734;2023-07-13T06:40:48;5.38;;;2.50;;
72422;SDS011;71399;54.146;38.734;2023-07-13T06:43:14;10.48;;;2.10;;
72422;SDS011;71399;54.146;38.734;2023-07-13T06:45:42;4.40;;;2.20;;
72422;SDS011;71399;54.146;38.734;2023-07-13T06:48:11;5.40;;;1.90;;
72422;SDS011;71399;54.146;38.734;2023-07-13T06:50:37;6.00;;;2.17;;
72422;SDS011;71399;54.146;38.734;2023-07-13T06:53:03;6.47;;;2.17;;
72422;SDS011;71399;54.146;38.734;2023-07-13T06:55:30;5.97;;;2.38;;
72422;SDS011;71399;54.146;38.734;2023-07-13T06:57:56;4.53;;;2.53;;
72422;SDS011;71399;54.146;38.734;2023-07-13T07:00:23;4.70;;;2.17;;
72422;SDS011;71399;54.146;38.734;2023-07-13T07:02:49;4.68;;;2.30;;
72422;SDS011;71399;54.146;38.734;2023-07-13T07:05:15;6.00;;;2.00;;
72422;SDS011;71399;54.146;38.734;2023-07-13T07:07:41;7.63;;;1.95;;
72422;SDS011;71399;54.146;38.734;2023-07-13T07:10:07;3.45;;;2.00;;
72422;SDS011;71399;54.146;38.734;2023-07-13T07:12:33;5.90;;;2.47;;
72422;SDS011;71399;54.146;38.734;2023-07-13T07:15:00;4.25;;;2.42;;
72422;SDS011;71399;54.146;38.734;2023-07-13T07:17:26;7.05;;;2.78;;
72422;SDS011;71399;54.146;38.734;2023-07-13T07:19:52;6.90;;;3.55;;
72422;SDS011;71399;54.146;38.734;2023-07-13T07:22:21;6.28;;;3.10;;
72422;SDS011;71399;54.146;38.734;2023-07-13T07:24:47;5.70;;;3.00;;
72422;SDS011;71399;54.146;38.734;2023-07-13T07:27:13;8.75;;;3.55;;
72422;SDS011;71399;54.146;38.734;2023-07-13T07:29:39;7.78;;;3.28;;
72422;SDS011;71399;54.146;38.734;2023-07-13T07:32:05;6.53;;;3.33;;
72422;SDS011;71399;54.146;38.734;2023-07-13T07:34:32;4.53;;;2.72;;
72422;SDS011;71399;54.146;38.734;2023-07-13T07:37:01;7.05;;;3.10;;
72422;SDS011;71399;54.146;38.734;2023-07-13T07:39:28;6.28;;;3.17;;
72422;SDS011;71399;54.146;38.734;2023-07-13T07:41:54;4.97;;;2.97;;
72422;SDS011;71399;54.146;38.734;2023-07-13T07:44:21;8.15;;;2.70;;
72422;SDS011;71399;54.146;38.734;2023-07-13T07:46:47;11.45;;;3.75;;
72422;SDS011;71399;54.146;38.734;2023-07-13T07:49:14;8.30;;;2.92;;
72422;SDS011;71399;54.146;38.734;2023-07-13T07:51:41;8.02;;;2.50;;
72422;SDS011;71399;54.146;38.734;2023-07-13T07:54:07;10.15;;;2.88;;
72422;SDS011;71399;54.146;38.734;2023-07-13T07:56:33;6.97;;;3.00;;
72422;SDS011;71399;54.146;38.734;2023-07-13T07:58:59;8.82;;;2.97;;
72422;SDS011;71399;54.146;38.734;2023-07-13T08:01:25;9.02;;;2.67;;
72422;SDS011;71399;54.146;38.734;2023-07-13T08:03:51;7.15;;;2.80;;
72422;SDS011;71399;54.146;38.734;2023-07-13T08:06:17;8.02;;;2.50;;
72422;SDS011;71399;54.146;38.734;2023-07-13T08:08:45;10.13;;;3.28;;
72422;SDS011;71399;54.146;38.734;2023-07-13T08:11:11;8.15;;;3.00;;
72422;SDS011;71399;54.146;38.734;2023-07-13T08:13:38;8.90;;;3.03;;
72422;SDS011;71399;54.146;38.734;2023-07-13T08:16:04;11.13;;;3.08;;
72422;SDS011;71399;54.146;38.734;2023-07-13T08:18:31;9.43;;;3.25;;
72422;SDS011;71399;54.146;38.734;2023-07-13T08:20:58;8.98;;;2.88;;
72422;SDS011;71399;54.146;38.734;2023-07-13T08:23:24;8.55;;;2.65;;
72422;SDS011;71399;54.146;38.734;2023-07-13T08:25:51;6.57;;;2.42;;
72422;SDS011;71399;54.146;38.734;2023-07-13T08:28:19;5.05;;;2.30;;
72422;SDS011;71399;54.146;38.734;2023-07-13T08:30:48;5.88;;;2.22;;
72422;SDS011;71399;54.146;38.734;2023-07-13T08:33:18;5.30;;;2.10;;
72422;SDS011;71399;54.146;38.734;2023-07-13T08:35:49;4.05;;;2.03;;
72422;SDS011;71399;54.146;38.734;2023-07-13T08:38:16;7.85;;;1.67;;
72422;SDS011;71399;54.146;38.734;2023-07-13T08:40:43;4.38;;;1.52;;
72422;SDS011;71399;54.146;38.734;2023-07-13T08:43:16;4.78;;;1.50;;
72422;SDS011;71399;54.146;38.734;2023-07-13T08:45:47;5.72;;;1.63;;
72422;SDS011;71399;54.146;38.734;2023-07-13T08:48:29;4.93;;;1.60;;
72422;SDS011;71399;54.146;38.734;2023-07-13T08:51:00;2.30;;;1.40;;
72422;SDS011;71399;54.146;38.734;2023-07-13T08:53:49;5.80;;;1.85;;
72422;SDS011;71399;54.146;38.734;2023-07-13T08:56:21;2.90;;;1.50;;
72422;SDS011;71399;54.146;38.734;2023-07-13T08:58:58;3.90;;;1.50;;
72422;SDS011;71399;54.146;38.734;2023-07-13T09:02:20;5.28;;;1.50;;
72422;SDS011;71399;54.146;38.734;2023-07-13T09:04:28;6.00;;;1.88;;
72422;SDS011;71399;54.146;38.734;2023-07-13T09:07:05;5.55;;;1.65;;
72422;SDS011;71399;54.146;38.734;2023-07-13T09:12:27;5.88;;;1.88;;
72422;SDS011;71399;54.146;38.734;2023-07-13T09:14:56;5.80;;;1.77;;
72422;SDS011;71399;54.146;38.734;2023-07-13T09:17:29;5.78;;;1.55;;
72422;SDS011;71399;54.146;38.734;2023-07-13T09:20:21;6.78;;;1.88;;
72422;SDS011;71399;54.146;38.734;2023-07-13T09:22:53;4.88;;;1.73;;
72422;SDS011;71399;54.146;38.734;2023-07-13T09:27:57;5.60;;;1.73;;
72422;SDS011;71399;54.146;38.734;2023-07-13T09:30:30;3.50;;;1.80;;
72422;SDS011;71399;54.146;38.734;2023-07-13T09:33:03;5.05;;;1.88;;
72422;SDS011;71399;54.146;38.734;2023-07-13T09:35:30;3.17;;;1.38;;
72422;SDS011;71399;54.146;38.734;2023-07-13T09:38:03;3.72;;;1.52;;
72422;SDS011;71399;54.146;38.734;2023-07-13T09:43:16;4.63;;;1.60;;
72422;SDS011;71399;54.146;38.734;2023-07-13T09:45:45;5.32;;;1.90;;
72422;SDS011;71399;54.146;38.734;2023-07-13T09:48:15;3.40;;;1.90;;
72422;SDS011;71399;54.146;38.734;2023-07-13T09:50:43;3.72;;;1.67;;
72422;SDS011;71399;54.146;38.734;2023-07-13T09:53:13;10.25;;;4.75;;
72422;SDS011;71399;54.146;38.734;2023-07-13T09:55:42;5.82;;;2.13;;
72422;SDS011;71399;54.146;38.734;2023-07-13T09:58:14;5.25;;;3.00;;
72422;SDS011;71399;54.146;38.734;2023-07-13T10:00:57;9.77;;;2.42;;
72422;SDS011;71399;54.146;38.734;2023-07-13T10:03:29;8.30;;;5.38;;
72422;SDS011;71399;54.146;38.734;2023-07-13T10:06:13;7.93;;;3.45;;
72422;SDS011;71399;54.146;38.734;2023-07-13T10:08:41;13.68;;;6.78;;
72422;SDS011;71399;54.146;38.734;2023-07-13T10:16:57;6.78;;;2.65;;
72422;SDS011;71399;54.146;38.734;2023-07-13T10:19:31;7.43;;;2.00;;
72422;SDS011;71399;54.146;38.734;2023-07-13T10:22:00;2.85;;;1.70;;
72422;SDS011;71399;54.146;38.734;2023-07-13T10:24:40;3.25;;;1.95;;
72422;SDS011;71399;54.146;38.734;2023-07-13T10:27:10;4.47;;;2.05;;
72422;SDS011;71399;54.146;38.734;2023-07-13T10:29:52;4.13;;;1.75;;
72422;SDS011;71399;54.146;38.734;2023-07-13T10:32:29;3.83;;;1.45;;
72422;SDS011;71399;54.146;38.734;2023-07-13T10:34:55;4.03;;;1.60;;
72422;SDS011;71399;54.146;38.734;2023-07-13T10:40:12;6.20;;;1.95;;
72422;SDS011;71399;54.146;38.734;2023-07-13T10:42:45;6.72;;;2.17;;
72422;SDS011;71399;54.146;38.734;2023-07-13T10:45:23;5.47;;;1.75;;
72422;SDS011;71399;54.146;38.734;2023-07-13T10:47:51;4.07;;;1.85;;
72422;SDS011;71399;54.146;38.734;2023-07-13T10:50:26;4.43;;;1.83;;
72422;SDS011;71399;54.146;38.734;2023-07-13T10:53:03;5.32;;;2.22;;
72422;SDS011;71399;54.146;38.734;2023-07-13T11:01:07;8.40;;;2.38;;
72422;SDS011;71399;54.146;38.734;2023-07-13T11:03:47;4.53;;;1.80;;
72422;SDS011;71399;54.146;38.734;2023-07-13T11:06:40;4.40;;;2.10;;
72422;SDS011;71399;54.146;38.734;2023-07-13T11:12:00;4.30;;;2.10;;
72422;SDS011;71399;54.146;38.734;2023-07-13T11:14:35;4.75;;;1.80;;
72422;SDS011;71399;54.146;38.734;2023-07-13T11:20:39;3.80;;;1.80;;
72422;SDS011;71399;54.146;38.734;2023-07-13T11:22:50;6.90;;;1.90;;
72422;SDS011;71399;54.146;38.734;2023-07-13T11:25:34;3.75;;;1.88;;
72422;SDS011;71399;54.146;38.734;2023-07-13T11:36:13;6.68;;;1.75;;
72422;SDS011;71399;54.146;38.734;2023-07-13T11:38:42;4.15;;;1.60;;
72422;SDS011;71399;54.146;38.734;2023-07-13T11:41:27;3.92;;;1.52;;
72422;SDS011;71399;54.146;38.734;2023-07-13T11:44:10;3.35;;;1.50;;
72422;SDS011;71399;54.146;38.734;2023-07-13T11:46:46;4.05;;;1.50;;
72422;SDS011;71399;54.146;38.734;2023-07-13T11:49:21;4.38;;;1.48;;
72422;SDS011;71399;54.146;38.734;2023-07-13T11:51:50;3.47;;;1.52;;
72422;SDS011;71399;54.146;38.734;2023-07-13T11:54:24;2.63;;;1.40;;
72422;SDS011;71399;54.146;38.734;2023-07-13T11:57:29;3.60;;;1.60;;
72422;SDS011;71399;54.146;38.734;2023-07-13T12:00:00;5.25;;;1.73;;
72422;SDS011;71399;54.146;38.734;2023-07-13T12:02:32;3.33;;;1.50;;
72422;SDS011;71399;54.146;38.734;2023-07-13T12:05:04;3.08;;;1.35;;
72422;SDS011;71399;54.146;38.734;2023-07-13T12:07:33;3.10;;;1.40;;
72422;SDS011;71399;54.146;38.734;2023-07-13T12:10:03;2.78;;;1.55;;
72422;SDS011;71399;54.146;38.734;2023-07-13T12:12:53;2.85;;;1.65;;
72422;SDS011;71399;54.146;38.734;2023-07-13T12:15:39;3.38;;;1.20;;
72422;SDS011;71399;54.146;38.734;2023-07-13T12:18:13;6.55;;;1.50;;
72422;SDS011;71399;54.146;38.734;2023-07-13T12:20:41;3.95;;;1.60;;
72422;SDS011;71399;54.146;38.734;2023-07-13T12:23:20;3.97;;;1.58;;
72422;SDS011;71399;54.146;38.734;2023-07-13T12:28:31;6.20;;;1.58;;
72422;SDS011;71399;54.146;38.734;2023-07-13T12:30:58;3.65;;;1.70;;
72422;SDS011;71399;54.146;38.734;2023-07-13T12:33:30;4.30;;;1.65;;
72422;SDS011;71399;54.146;38.734;2023-07-13T12:35:59;4.57;;;1.55;;
72422;SDS011;71399;54.146;38.734;2023-07-13T12:38:28;3.20;;;1.50;;
72422;SDS011;71399;54.146;38.734;2023-07-13T12:40:55;3.47;;;1.50;;
72422;SDS011;71399;54.146;38.734;2023-07-13T12:43:23;6.13;;;1.58;;
72422;SDS011;71399;54.146;38.734;2023-07-13T12:45:58;2.58;;;1.40;;
72422;SDS011;71399;54.146;38.734;2023-07-13T12:48:27;3.03;;;1.70;;
72422;SDS011;71399;54.146;38.734;2023-07-13T12:50:54;2.63;;;1.35;;
72422;SDS011;71399;54.146;38.734;2023-07-13T12:53:23;2.75;;;1.02;;
72422;SDS011;71399;54.146;38.734;2023-07-13T12:55:58;6.70;;;1.73;;
72422;SDS011;71399;54.146;38.734;2023-07-13T12:58:28;3.22;;;1.58;;
72422;SDS011;71399;54.146;38.734;2023-07-13T13:00:59;3.60;;;1.35;;
72422;SDS011;71399;54.146;38.734;2023-07-13T13:03:35;4.07;;;1.50;;
72422;SDS011;71399;54.146;38.734;2023-07-13T13:06:06;4.90;;;1.52;;
72422;SDS011;71399;54.146;38.734;2023-07-13T13:08:46;3.55;;;1.20;;
72422;SDS011;71399;54.146;38.734;2023-07-13T13:11:18;6.70;;;1.50;;
72422;SDS011;71399;54.146;38.734;2023-07-13T13:13:45;2.90;;;1.40;;
72422;SDS011;71399;54.146;38.734;2023-07-13T13:16:21;4.03;;;1.13;;
72422;SDS011;71399;54.146;38.734;2023-07-13T13:18:50;4.22;;;1.42;;
72422;SDS011;71399;54.146;38.734;2023-07-13T13:21:18;3.65;;;1.30;;
72422;SDS011;71399;54.146;38.734;2023-07-13T13:23:45;6.60;;;1.95;;
72422;SDS011;71399;54.146;38.734;2023-07-13T13:26:12;3.97;;;1.45;;
72422;SDS011;71399;54.146;38.734;2023-07-13T13:28:44;5.68;;;1.73;;
72422;SDS011;71399;54.146;38.734;2023-07-13T13:31:11;2.55;;;1.42;;
72422;SDS011;71399;54.146;38.734;2023-07-13T13:33:38;2.92;;;1.23;;
72422;SDS011;71399;54.146;38.734;2023-07-13T13:36:14;3.15;;;1.35;;
72422;SDS011;71399;54.146;38.734;2023-07-13T13:38:45;4.05;;;1.20;;
72422;SDS011;71399;54.146;38.734;2023-07-13T13:41:12;4.80;;;1.40;;
72422;SDS011;71399;54.146;38.734;2023-07-13T13:43:40;2.45;;;1.27;;
72422;SDS011;71399;54.146;38.734;2023-07-13T13:46:14;2.78;;;1.35;;
72422;SDS011;71399;54.146;38.734;2023-07-13T13:48:43;3.33;;;1.38;;
72422;SDS011;71399;54.146;38.734;2023-07-13T13:51:14;3.53;;;1.42;;
72422;SDS011;71399;54.146;38.734;2023-07-13T13:53:49;3.65;;;1.70;;
72422;SDS011;71399;54.146;38.734;2023-07-13T13:56:15;4.22;;;1.40;;
72422;SDS011;71399;54.146;38.734;2023-07-13T13:58:44;3.42;;;1.52;;
72422;SDS011;71399;54.146;38.734;2023-07-13T14:01:14;3.80;;;1.33;;
72422;SDS011;71399;54.146;38.734;2023-07-13T14:03:44;4.03;;;1.45;;
72422;SDS011;71399;54.146;38.734;2023-07-13T14:06:12;4.45;;;1.25;;
72422;SDS011;71399;54.146;38.734;2023-07-13T14:08:39;3.65;;;1.42;;
72422;SDS011;71399;54.146;38.734;2023-07-13T14:11:05;3.67;;;1.50;;
72422;SDS011;71399;54.146;38.734;2023-07-13T14:13:44;4.57;;;1.48;;
72422;SDS011;71399;54.146;38.734;2023-07-13T14:16:15;3.80;;;1.60;;
72422;SDS011;71399;54.146;38.734;2023-07-13T14:18:43;4.80;;;1.52;;
72422;SDS011;71399;54.146;38.734;2023-07-13T14:21:14;3.97;;;1.40;;
72422;SDS011;71399;54.146;38.734;2023-07-13T14:23:43;5.32;;;1.58;;
72422;SDS011;71399;54.146;38.734;2023-07-13T14:26:14;2.88;;;1.50;;
72422;SDS011;71399;54.146;38.734;2023-07-13T14:28:49;5.60;;;1.50;;
72422;SDS011;71399;54.146;38.734;2023-07-13T14:31:18;3.97;;;1.67;;
72422;SDS011;71399;54.146;38.734;2023-07-13T14:33:45;8.75;;;1.60;;
72422;SDS011;71399;54.146;38.734;2023-07-13T14:36:24;4.60;;;1.63;;
72422;SDS011;71399;54.146;38.734;2023-07-13T14:39:14;7.80;;;2.13;;
72422;SDS011;71399;54.146;38.734;2023-07-13T14:41:44;4.82;;;2.17;;
72422;SDS011;71399;54.146;38.734;2023-07-13T14:44:12;3.83;;;1.95;;
72422;SDS011;71399;54.146;38.734;2023-07-13T14:46:39;4.55;;;1.90;;
72422;SDS011;71399;54.146;38.734;2023-07-13T14:51:54;9.95;;;1.70;;
72422;SDS011;71399;54.146;38.734;2023-07-13T14:54:24;5.82;;;1.77;;
72422;SDS011;71399;54.146;38.734;2023-07-13T14:56:51;6.47;;;1.90;;
72422;SDS011;71399;54.146;38.734;2023-07-13T14:59:17;6.32;;;1.77;;
72422;SDS011;71399;54.146;38.734;2023-07-13T15:01:46;6.75;;;1.92;;
72422;SDS011;71399;54.146;38.734;2023-07-13T15:04:15;4.65;;;1.92;;
72422;SDS011;71399;54.146;38.734;2023-07-13T15:06:56;3.85;;;1.80;;
72422;SDS011;71399;54.146;38.734;2023-07-13T15:09:25;5.57;;;1.83;;
72422;SDS011;71399;54.146;38.734;2023-07-13T15:11:53;5.50;;;1.90;;
72422;SDS011;71399;54.146;38.734;2023-07-13T15:14:20;9.15;;;2.03;;
72422;SDS011;71399;54.146;38.734;2023-07-13T15:16:47;5.18;;;1.80;;
72422;SDS011;71399;54.146;38.734;2023-07-13T15:19:17;3.33;;;1.70;;
72422;SDS011;71399;54.146;38.734;2023-07-13T15:21:44;4.38;;;1.70;;
72422;SDS011;71399;54.146;38.734;2023-07-13T15:24:12;4.60;;;1.83;;
72422;SDS011;71399;54.146;38.734;2023-07-13T15:26:38;5.32;;;1.88;;
72422;SDS011;71399;54.146;38.734;2023-07-13T15:29:05;8.75;;;7.03;;
72422;SDS011;71399;54.146;38.734;2023-07-13T15:31:31;3.63;;;2.10;;
72422;SDS011;71399;54.146;38.734;2023-07-13T15:33:59;5.57;;;1.88;;